sensor_id;sensor_type;location;lat;lon;timestamp;P1;durP1;ratioP1;P2;durP2;ratioP2
12665;SDS011;58531;59.050;17.416;2023-08-01T00:00:10;21.67;;;19.93;;
12665;SDS011;58531;59.050;17.416;2023-08-01T00:02:37;19.60;;;17.97;;
12665;SDS011;58531;59.050;17.416;2023-08-01T00:05:07;23.37;;;21.47;;
12665;SDS011;58531;59.050;17.416;2023-08-01T00:07:35;21.60;;;19.40;;
12665;SDS011;58531;59.050;17.416;2023-08-01T00:10:02;20.90;;;19.33;;
12665;SDS011;58531;59.050;17.416;2023-08-01T00:12:29;21.50;;;19.93;;
12665;SDS011;58531;59.050;17.416;2023-08-01T00:14:57;23.07;;;21.20;;
12665;SDS011;58531;59.050;17.416;2023-08-01T00:17:24;22.30;;;19.90;;
12665;SDS011;58531;59.050;17.416;2023-08-01T00:19:51;20.73;;;18.90;;
12665;SDS011;58531;59.050;17.416;2023-08-01T00:22:18;20.27;;;18.53;;
12665;SDS011;58531;59.050;17.416;2023-08-01T00:24:44;23.83;;;20.87;;
12665;SDS011;58531;59.050;17.416;2023-08-01T00:27:12;22.87;;;20.63;;
12665;SDS011;58531;59.050;17.416;2023-08-01T00:29:39;22.60;;;20.40;;
12665;SDS011;58531;59.050;17.416;2023-08-01T00:32:07;22.90;;;20.87;;
12665;SDS011;58531;59.050;17.416;2023-08-01T00:34:34;23.93;;;21.73;;
12665;SDS011;58531;59.050;17.416;2023-08-01T00:37:01;25.23;;;22.80;;
12665;SDS011;58531;59.050;17.416;2023-08-01T00:39:28;23.07;;;21.07;;
12665;SDS011;58531;59.050;17.416;2023-08-01T00:41:55;24.77;;;22.13;;
12665;SDS011;58531;59.050;17.416;2023-08-01T00:44:22;22.63;;;20.47;;
12665;SDS011;58531;59.050;17.416;2023-08-01T00:46:49;24.37;;;21.53;;
12665;SDS011;58531;59.050;17.416;2023-08-01T00:49:18;24.00;;;22.00;;
12665;SDS011;58531;59.050;17.416;2023-08-01T00:51:45;25.27;;;22.73;;
12665;SDS011;58531;59.050;17.416;2023-08-01T00:54:12;25.50;;;22.97;;
12665;SDS011;58531;59.050;17.416;2023-08-01T00:56:38;24.77;;;22.20;;
12665;SDS011;58531;59.050;17.416;2023-08-01T00:59:05;21.30;;;19.40;;
12665;SDS011;58531;59.050;17.416;2023-08-01T01:01:32;22.27;;;20.43;;
12665;SDS011;58531;59.050;17.416;2023-08-01T01:03:59;24.20;;;22.07;;
12665;SDS011;58531;59.050;17.416;2023-08-01T01:06:30;22.90;;;20.87;;
12665;SDS011;58531;59.050;17.416;2023-08-01T01:08:59;26.77;;;24.20;;
12665;SDS011;58531;59.050;17.416;2023-08-01T01:11:26;24.30;;;21.67;;
12665;SDS011;58531;59.050;17.416;2023-08-01T01:13:53;25.60;;;22.50;;
12665;SDS011;58531;59.050;17.416;2023-08-01T01:16:18;24.20;;;21.70;;
12665;SDS011;58531;59.050;17.416;2023-08-01T01:18:45;25.47;;;23.10;;
12665;SDS011;58531;59.050;17.416;2023-08-01T01:21:13;25.97;;;23.40;;
12665;SDS011;58531;59.050;17.416;2023-08-01T01:23:40;24.67;;;22.20;;
12665;SDS011;58531;59.050;17.416;2023-08-01T01:26:09;27.63;;;24.87;;
12665;SDS011;58531;59.050;17.416;2023-08-01T01:28:36;22.60;;;20.50;;
12665;SDS011;58531;59.050;17.416;2023-08-01T01:31:04;24.30;;;21.70;;
12665;SDS011;58531;59.050;17.416;2023-08-01T01:33:31;23.87;;;21.70;;
12665;SDS011;58531;59.050;17.416;2023-08-01T01:36:00;24.07;;;21.83;;
12665;SDS011;58531;59.050;17.416;2023-08-01T01:38:28;24.10;;;21.90;;
12665;SDS011;58531;59.050;17.416;2023-08-01T01:40:55;25.10;;;22.83;;
12665;SDS011;58531;59.050;17.416;2023-08-01T01:43:22;25.77;;;23.60;;
12665;SDS011;58531;59.050;17.416;2023-08-01T01:45:49;25.07;;;22.70;;
12665;SDS011;58531;59.050;17.416;2023-08-01T01:48:16;25.47;;;23.20;;
12665;SDS011;58531;59.050;17.416;2023-08-01T01:50:43;25.77;;;23.00;;
12665;SDS011;58531;59.050;17.416;2023-08-01T01:53:09;26.23;;;23.50;;
12665;SDS011;58531;59.050;17.416;2023-08-01T01:55:38;24.17;;;22.13;;
12665;SDS011;58531;59.050;17.416;2023-08-01T01:58:05;25.80;;;23.37;;
12665;SDS011;58531;59.050;17.416;2023-08-01T02:00:32;25.97;;;22.60;;
12665;SDS011;58531;59.050;17.416;2023-08-01T02:02:59;23.90;;;21.63;;
12665;SDS011;58531;59.050;17.416;2023-08-01T02:05:27;25.30;;;22.90;;
12665;SDS011;58531;59.050;17.416;2023-08-01T02:07:54;23.53;;;20.93;;
12665;SDS011;58531;59.050;17.416;2023-08-01T02:10:21;24.07;;;21.50;;
12665;SDS011;58531;59.050;17.416;2023-08-01T02:12:50;24.37;;;21.87;;
12665;SDS011;58531;59.050;17.416;2023-08-01T02:15:16;30.20;;;24.13;;
12665;SDS011;58531;59.050;17.416;2023-08-01T02:17:43;23.10;;;21.10;;
12665;SDS011;58531;59.050;17.416;2023-08-01T02:20:10;23.27;;;20.93;;
12665;SDS011;58531;59.050;17.416;2023-08-01T02:22:37;27.07;;;22.20;;
12665;SDS011;58531;59.050;17.416;2023-08-01T02:25:05;23.13;;;20.87;;
12665;SDS011;58531;59.050;17.416;2023-08-01T02:27:32;24.27;;;21.67;;
12665;SDS011;58531;59.050;17.416;2023-08-01T02:30:00;25.27;;;22.50;;
12665;SDS011;58531;59.050;17.416;2023-08-01T02:32:27;24.93;;;22.30;;
12665;SDS011;58531;59.050;17.416;2023-08-01T02:34:54;23.87;;;21.47;;
12665;SDS011;58531;59.050;17.416;2023-08-01T02:37:20;22.77;;;20.23;;
12665;SDS011;58531;59.050;17.416;2023-08-01T02:39:47;23.77;;;20.70;;
12665;SDS011;58531;59.050;17.416;2023-08-01T02:42:14;25.47;;;22.57;;
12665;SDS011;58531;59.050;17.416;2023-08-01T02:44:41;45.27;;;22.80;;
12665;SDS011;58531;59.050;17.416;2023-08-01T02:47:09;115.57;;;25.27;;
12665;SDS011;58531;59.050;17.416;2023-08-01T02:49:36;82.83;;;24.77;;
12665;SDS011;58531;59.050;17.416;2023-08-01T02:52:03;61.83;;;23.13;;
12665;SDS011;58531;59.050;17.416;2023-08-01T02:54:30;59.33;;;23.73;;
12665;SDS011;58531;59.050;17.416;2023-08-01T02:56:57;60.23;;;23.03;;
12665;SDS011;58531;59.050;17.416;2023-08-01T02:59:24;50.43;;;21.97;;
12665;SDS011;58531;59.050;17.416;2023-08-01T03:01:50;50.80;;;23.10;;
12665;SDS011;58531;59.050;17.416;2023-08-01T03:04:19;41.97;;;20.07;;
12665;SDS011;58531;59.050;17.416;2023-08-01T03:06:45;31.40;;;22.23;;
12665;SDS011;58531;59.050;17.416;2023-08-01T03:09:12;25.00;;;19.97;;
12665;SDS011;58531;59.050;17.416;2023-08-01T03:11:39;42.90;;;20.60;;
12665;SDS011;58531;59.050;17.416;2023-08-01T03:14:06;41.10;;;20.63;;
12665;SDS011;58531;59.050;17.416;2023-08-01T03:16:33;35.03;;;18.93;;
12665;SDS011;58531;59.050;17.416;2023-08-01T03:19:00;45.37;;;21.50;;
12665;SDS011;58531;59.050;17.416;2023-08-01T03:21:31;57.77;;;20.87;;
12665;SDS011;58531;59.050;17.416;2023-08-01T03:23:58;39.90;;;20.47;;
12665;SDS011;58531;59.050;17.416;2023-08-01T03:26:25;45.73;;;19.87;;
12665;SDS011;58531;59.050;17.416;2023-08-01T03:28:53;44.67;;;21.33;;
12665;SDS011;58531;59.050;17.416;2023-08-01T03:31:20;54.77;;;20.00;;
12665;SDS011;58531;59.050;17.416;2023-08-01T03:33:47;99.37;;;25.03;;
12665;SDS011;58531;59.050;17.416;2023-08-01T03:36:14;128.67;;;25.27;;
12665;SDS011;58531;59.050;17.416;2023-08-01T03:38:42;109.63;;;23.57;;
12665;SDS011;58531;59.050;17.416;2023-08-01T03:41:10;69.03;;;22.27;;
12665;SDS011;58531;59.050;17.416;2023-08-01T03:43:37;111.47;;;25.97;;
12665;SDS011;58531;59.050;17.416;2023-08-01T03:46:04;52.57;;;24.23;;
12665;SDS011;58531;59.050;17.416;2023-08-01T03:48:30;41.60;;;22.00;;
12665;SDS011;58531;59.050;17.416;2023-08-01T03:50:57;82.43;;;21.77;;
12665;SDS011;58531;59.050;17.416;2023-08-01T03:53:25;57.90;;;21.97;;
12665;SDS011;58531;59.050;17.416;2023-08-01T03:55:53;50.87;;;26.07;;
12665;SDS011;58531;59.050;17.416;2023-08-01T03:58:20;65.43;;;35.17;;
12665;SDS011;58531;59.050;17.416;2023-08-01T04:00:47;772.23;;;132.23;;
12665;SDS011;58531;59.050;17.416;2023-08-01T04:03:14;202.10;;;58.00;;
12665;SDS011;58531;59.050;17.416;2023-08-01T04:05:41;33.83;;;31.63;;
12665;SDS011;58531;59.050;17.416;2023-08-01T04:08:08;39.47;;;37.57;;
12665;SDS011;58531;59.050;17.416;2023-08-01T04:10:34;42.67;;;40.80;;
12665;SDS011;58531;59.050;17.416;2023-08-01T04:13:03;43.27;;;41.57;;
12665;SDS011;58531;59.050;17.416;2023-08-01T04:15:29;14.80;;;13.90;;
12665;SDS011;58531;59.050;17.416;2023-08-01T04:17:56;14.77;;;13.87;;
12665;SDS011;58531;59.050;17.416;2023-08-01T04:20:23;13.53;;;13.00;;
12665;SDS011;58531;59.050;17.416;2023-08-01T04:22:50;15.33;;;14.50;;
12665;SDS011;58531;59.050;17.416;2023-08-01T04:25:17;9.73;;;9.23;;
12665;SDS011;58531;59.050;17.416;2023-08-01T04:27:44;4.80;;;4.50;;
12665;SDS011;58531;59.050;17.416;2023-08-01T04:30:12;4.17;;;3.80;;
12665;SDS011;58531;59.050;17.416;2023-08-01T04:32:39;4.97;;;4.27;;
12665;SDS011;58531;59.050;17.416;2023-08-01T04:35:06;4.67;;;4.37;;
12665;SDS011;58531;59.050;17.416;2023-08-01T04:37:33;4.90;;;3.97;;
12665;SDS011;58531;59.050;17.416;2023-08-01T04:40:00;5.33;;;4.83;;
12665;SDS011;58531;59.050;17.416;2023-08-01T04:42:28;6.73;;;6.30;;
12665;SDS011;58531;59.050;17.416;2023-08-01T04:44:55;8.87;;;8.30;;
12665;SDS011;58531;59.050;17.416;2023-08-01T04:47:23;14.40;;;13.53;;
12665;SDS011;58531;59.050;17.416;2023-08-01T04:49:50;13.37;;;12.57;;
12665;SDS011;58531;59.050;17.416;2023-08-01T04:52:17;14.37;;;13.63;;
12665;SDS011;58531;59.050;17.416;2023-08-01T04:54:44;14.40;;;13.60;;
12665;SDS011;58531;59.050;17.416;2023-08-01T04:57:10;14.80;;;13.90;;
12665;SDS011;58531;59.050;17.416;2023-08-01T04:59:37;10.60;;;10.07;;
12665;SDS011;58531;59.050;17.416;2023-08-01T05:02:04;7.93;;;7.27;;
12665;SDS011;58531;59.050;17.416;2023-08-01T05:04:32;6.13;;;5.63;;
12665;SDS011;58531;59.050;17.416;2023-08-01T05:06:59;4.57;;;4.27;;
12665;SDS011;58531;59.050;17.416;2023-08-01T05:09:26;5.03;;;4.53;;
12665;SDS011;58531;59.050;17.416;2023-08-01T05:11:53;6.33;;;5.93;;
12665;SDS011;58531;59.050;17.416;2023-08-01T05:14:20;9.27;;;8.77;;
12665;SDS011;58531;59.050;17.416;2023-08-01T05:16:46;13.77;;;12.93;;
12665;SDS011;58531;59.050;17.416;2023-08-01T05:19:13;15.17;;;14.30;;
12665;SDS011;58531;59.050;17.416;2023-08-01T05:21:41;11.20;;;10.50;;
12665;SDS011;58531;59.050;17.416;2023-08-01T05:24:08;11.07;;;10.33;;
12665;SDS011;58531;59.050;17.416;2023-08-01T05:26:35;11.47;;;10.67;;
12665;SDS011;58531;59.050;17.416;2023-08-01T05:29:02;13.13;;;12.40;;
12665;SDS011;58531;59.050;17.416;2023-08-01T05:31:29;15.77;;;14.93;;
12665;SDS011;58531;59.050;17.416;2023-08-01T05:33:56;19.00;;;17.90;;
12665;SDS011;58531;59.050;17.416;2023-08-01T05:36:23;21.27;;;20.10;;
12665;SDS011;58531;59.050;17.416;2023-08-01T05:38:51;24.60;;;23.57;;
12665;SDS011;58531;59.050;17.416;2023-08-01T05:41:18;26.43;;;24.93;;
12665;SDS011;58531;59.050;17.416;2023-08-01T05:43:46;31.00;;;29.60;;
12665;SDS011;58531;59.050;17.416;2023-08-01T05:46:13;13.97;;;13.07;;
12665;SDS011;58531;59.050;17.416;2023-08-01T05:48:40;10.67;;;10.03;;
12665;SDS011;58531;59.050;17.416;2023-08-01T05:51:07;8.73;;;8.23;;
12665;SDS011;58531;59.050;17.416;2023-08-01T05:53:33;11.63;;;10.93;;
12665;SDS011;58531;59.050;17.416;2023-08-01T05:56:02;11.87;;;10.90;;
12665;SDS011;58531;59.050;17.416;2023-08-01T05:58:29;12.80;;;12.07;;
12665;SDS011;58531;59.050;17.416;2023-08-01T06:00:56;12.10;;;11.17;;
12665;SDS011;58531;59.050;17.416;2023-08-01T06:03:23;11.63;;;10.80;;
12665;SDS011;58531;59.050;17.416;2023-08-01T06:05:50;11.93;;;11.13;;
12665;SDS011;58531;59.050;17.416;2023-08-01T06:08:17;12.17;;;11.47;;
12665;SDS011;58531;59.050;17.416;2023-08-01T06:10:44;12.47;;;11.57;;
12665;SDS011;58531;59.050;17.416;2023-08-01T06:13:12;11.63;;;10.93;;
12665;SDS011;58531;59.050;17.416;2023-08-01T06:15:39;13.90;;;13.10;;
12665;SDS011;58531;59.050;17.416;2023-08-01T06:18:06;14.53;;;13.70;;
12665;SDS011;58531;59.050;17.416;2023-08-01T06:20:33;17.30;;;16.30;;
12665;SDS011;58531;59.050;17.416;2023-08-01T06:23:00;14.37;;;13.57;;
12665;SDS011;58531;59.050;17.416;2023-08-01T06:25:26;13.70;;;12.90;;
12665;SDS011;58531;59.050;17.416;2023-08-01T06:27:53;15.17;;;14.17;;
12665;SDS011;58531;59.050;17.416;2023-08-01T06:30:21;14.47;;;13.43;;
12665;SDS011;58531;59.050;17.416;2023-08-01T06:32:48;14.50;;;13.67;;
12665;SDS011;58531;59.050;17.416;2023-08-01T06:35:15;17.47;;;16.37;;
12665;SDS011;58531;59.050;17.416;2023-08-01T06:37:42;9.33;;;8.73;;
12665;SDS011;58531;59.050;17.416;2023-08-01T06:40:09;5.83;;;5.23;;
12665;SDS011;58531;59.050;17.416;2023-08-01T06:42:36;4.57;;;4.03;;
12665;SDS011;58531;59.050;17.416;2023-08-01T06:45:03;6.30;;;4.67;;
12665;SDS011;58531;59.050;17.416;2023-08-01T06:47:32;5.53;;;5.03;;
12665;SDS011;58531;59.050;17.416;2023-08-01T06:49:59;6.80;;;6.30;;
12665;SDS011;58531;59.050;17.416;2023-08-01T06:52:25;10.97;;;10.37;;
12665;SDS011;58531;59.050;17.416;2023-08-01T06:54:52;15.70;;;14.87;;
12665;SDS011;58531;59.050;17.416;2023-08-01T06:57:19;11.57;;;10.97;;
12665;SDS011;58531;59.050;17.416;2023-08-01T06:59:46;15.17;;;14.37;;
12665;SDS011;58531;59.050;17.416;2023-08-01T07:02:13;16.87;;;15.97;;
12665;SDS011;58531;59.050;17.416;2023-08-01T07:04:41;12.30;;;11.57;;
12665;SDS011;58531;59.050;17.416;2023-08-01T07:07:08;18.97;;;17.97;;
12665;SDS011;58531;59.050;17.416;2023-08-01T07:09:35;16.77;;;15.97;;
12665;SDS011;58531;59.050;17.416;2023-08-01T07:12:03;16.83;;;16.00;;
12665;SDS011;58531;59.050;17.416;2023-08-01T07:14:30;15.73;;;14.90;;
12665;SDS011;58531;59.050;17.416;2023-08-01T07:16:57;17.67;;;16.77;;
12665;SDS011;58531;59.050;17.416;2023-08-01T07:19:24;15.53;;;14.80;;
12665;SDS011;58531;59.050;17.416;2023-08-01T07:21:52;16.23;;;15.43;;
12665;SDS011;58531;59.050;17.416;2023-08-01T07:24:19;14.87;;;14.10;;
12665;SDS011;58531;59.050;17.416;2023-08-01T07:26:46;10.10;;;9.43;;
12665;SDS011;58531;59.050;17.416;2023-08-01T07:29:13;11.50;;;10.90;;
12665;SDS011;58531;59.050;17.416;2023-08-01T07:31:41;15.83;;;15.13;;
12665;SDS011;58531;59.050;17.416;2023-08-01T07:34:08;14.37;;;13.60;;
12665;SDS011;58531;59.050;17.416;2023-08-01T07:36:35;15.57;;;14.87;;
12665;SDS011;58531;59.050;17.416;2023-08-01T07:39:03;13.37;;;12.77;;
12665;SDS011;58531;59.050;17.416;2023-08-01T07:41:30;12.07;;;11.43;;
12665;SDS011;58531;59.050;17.416;2023-08-01T07:43:58;15.63;;;14.93;;
12665;SDS011;58531;59.050;17.416;2023-08-01T07:46:25;15.50;;;14.73;;
12665;SDS011;58531;59.050;17.416;2023-08-01T07:48:51;13.93;;;13.23;;
12665;SDS011;58531;59.050;17.416;2023-08-01T07:51:19;6.70;;;6.30;;
12665;SDS011;58531;59.050;17.416;2023-08-01T07:53:46;5.57;;;5.17;;
12665;SDS011;58531;59.050;17.416;2023-08-01T07:56:14;4.30;;;3.93;;
12665;SDS011;58531;59.050;17.416;2023-08-01T07:58:41;4.20;;;3.90;;
12665;SDS011;58531;59.050;17.416;2023-08-01T08:01:08;3.80;;;3.60;;
12665;SDS011;58531;59.050;17.416;2023-08-01T08:03:34;4.37;;;3.97;;
12665;SDS011;58531;59.050;17.416;2023-08-01T08:06:01;4.90;;;4.50;;
12665;SDS011;58531;59.050;17.416;2023-08-01T08:08:29;4.93;;;4.53;;
12665;SDS011;58531;59.050;17.416;2023-08-01T08:10:57;3.70;;;3.40;;
12665;SDS011;58531;59.050;17.416;2023-08-01T08:13:25;4.27;;;3.87;;
12665;SDS011;58531;59.050;17.416;2023-08-01T08:15:52;5.10;;;4.80;;
12665;SDS011;58531;59.050;17.416;2023-08-01T08:18:21;7.00;;;6.60;;
12665;SDS011;58531;59.050;17.416;2023-08-01T08:20:48;9.20;;;8.67;;
12665;SDS011;58531;59.050;17.416;2023-08-01T08:23:14;10.97;;;10.47;;
12665;SDS011;58531;59.050;17.416;2023-08-01T08:25:41;11.10;;;10.60;;
12665;SDS011;58531;59.050;17.416;2023-08-01T08:28:09;14.20;;;13.50;;
12665;SDS011;58531;59.050;17.416;2023-08-01T08:30:39;12.90;;;12.33;;
12665;SDS011;58531;59.050;17.416;2023-08-01T08:33:06;12.80;;;12.20;;
12665;SDS011;58531;59.050;17.416;2023-08-01T08:35:33;14.07;;;13.47;;
12665;SDS011;58531;59.050;17.416;2023-08-01T08:38:01;13.00;;;12.40;;
12665;SDS011;58531;59.050;17.416;2023-08-01T08:40:29;14.60;;;14.00;;
12665;SDS011;58531;59.050;17.416;2023-08-01T08:42:56;10.13;;;9.70;;
12665;SDS011;58531;59.050;17.416;2023-08-01T08:45:27;11.17;;;10.57;;
12665;SDS011;58531;59.050;17.416;2023-08-01T08:48:02;7.07;;;6.73;;
12665;SDS011;58531;59.050;17.416;2023-08-01T08:50:35;9.40;;;9.00;;
12665;SDS011;58531;59.050;17.416;2023-08-01T08:53:02;15.37;;;14.77;;
12665;SDS011;58531;59.050;17.416;2023-08-01T08:55:37;8.77;;;8.47;;
12665;SDS011;58531;59.050;17.416;2023-08-01T08:58:05;9.37;;;9.03;;
12665;SDS011;58531;59.050;17.416;2023-08-01T09:00:32;10.50;;;9.93;;
12665;SDS011;58531;59.050;17.416;2023-08-01T09:03:03;9.07;;;8.77;;
12665;SDS011;58531;59.050;17.416;2023-08-01T09:05:30;9.30;;;8.80;;
12665;SDS011;58531;59.050;17.416;2023-08-01T09:08:01;12.03;;;11.43;;
12665;SDS011;58531;59.050;17.416;2023-08-01T09:10:34;11.90;;;11.40;;
12665;SDS011;58531;59.050;17.416;2023-08-01T09:13:01;11.80;;;11.10;;
12665;SDS011;58531;59.050;17.416;2023-08-01T09:15:27;13.53;;;12.93;;
12665;SDS011;58531;59.050;17.416;2023-08-01T09:17:55;12.10;;;11.60;;
12665;SDS011;58531;59.050;17.416;2023-08-01T09:20:27;10.27;;;9.77;;
12665;SDS011;58531;59.050;17.416;2023-08-01T09:22:54;11.50;;;10.90;;
12665;SDS011;58531;59.050;17.416;2023-08-01T09:25:30;10.90;;;10.47;;
12665;SDS011;58531;59.050;17.416;2023-08-01T09:27:58;8.70;;;8.40;;
12665;SDS011;58531;59.050;17.416;2023-08-01T09:30:25;7.63;;;7.23;;
12665;SDS011;58531;59.050;17.416;2023-08-01T09:32:53;9.47;;;9.00;;
12665;SDS011;58531;59.050;17.416;2023-08-01T09:35:20;10.00;;;9.60;;
12665;SDS011;58531;59.050;17.416;2023-08-01T09:37:49;12.33;;;11.80;;
12665;SDS011;58531;59.050;17.416;2023-08-01T09:40:15;19.83;;;18.83;;
12665;SDS011;58531;59.050;17.416;2023-08-01T09:42:43;9.03;;;8.63;;
12665;SDS011;58531;59.050;17.416;2023-08-01T09:45:12;10.50;;;10.10;;
12665;SDS011;58531;59.050;17.416;2023-08-01T09:47:40;11.70;;;11.00;;
12665;SDS011;58531;59.050;17.416;2023-08-01T09:50:08;10.07;;;9.47;;
12665;SDS011;58531;59.050;17.416;2023-08-01T09:52:36;10.87;;;10.37;;
12665;SDS011;58531;59.050;17.416;2023-08-01T09:55:05;9.87;;;9.47;;
12665;SDS011;58531;59.050;17.416;2023-08-01T09:57:32;10.47;;;10.07;;
12665;SDS011;58531;59.050;17.416;2023-08-01T10:00:04;14.17;;;13.60;;
12665;SDS011;58531;59.050;17.416;2023-08-01T10:02:34;12.30;;;11.80;;
12665;SDS011;58531;59.050;17.416;2023-08-01T10:05:03;13.07;;;12.47;;
12665;SDS011;58531;59.050;17.416;2023-08-01T10:07:31;11.63;;;11.13;;
12665;SDS011;58531;59.050;17.416;2023-08-01T10:09:59;10.03;;;9.53;;
12665;SDS011;58531;59.050;17.416;2023-08-01T10:12:28;10.90;;;10.23;;
12665;SDS011;58531;59.050;17.416;2023-08-01T10:14:56;10.87;;;10.47;;
12665;SDS011;58531;59.050;17.416;2023-08-01T10:17:23;10.60;;;10.20;;
12665;SDS011;58531;59.050;17.416;2023-08-01T10:19:52;10.50;;;10.10;;
12665;SDS011;58531;59.050;17.416;2023-08-01T10:22:22;14.37;;;13.77;;
12665;SDS011;58531;59.050;17.416;2023-08-01T10:24:50;13.47;;;12.77;;
12665;SDS011;58531;59.050;17.416;2023-08-01T10:27:19;12.67;;;12.07;;
12665;SDS011;58531;59.050;17.416;2023-08-01T10:29:57;13.70;;;13.10;;
12665;SDS011;58531;59.050;17.416;2023-08-01T10:32:27;11.47;;;10.90;;
12665;SDS011;58531;59.050;17.416;2023-08-01T10:34:57;11.57;;;10.97;;
12665;SDS011;58531;59.050;17.416;2023-08-01T10:37:24;11.83;;;11.40;;
12665;SDS011;58531;59.050;17.416;2023-08-01T10:39:58;11.33;;;10.90;;
12665;SDS011;58531;59.050;17.416;2023-08-01T10:42:25;11.73;;;10.93;;
12665;SDS011;58531;59.050;17.416;2023-08-01T10:45:05;11.10;;;10.50;;
12665;SDS011;58531;59.050;17.416;2023-08-01T10:47:32;9.80;;;9.33;;
12665;SDS011;58531;59.050;17.416;2023-08-01T10:49:59;12.57;;;12.10;;
12665;SDS011;58531;59.050;17.416;2023-08-01T10:52:26;11.20;;;10.73;;
12665;SDS011;58531;59.050;17.416;2023-08-01T10:54:57;12.53;;;11.90;;
12665;SDS011;58531;59.050;17.416;2023-08-01T10:57:26;13.27;;;12.70;;
12665;SDS011;58531;59.050;17.416;2023-08-01T10:59:53;11.03;;;10.53;;
12665;SDS011;58531;59.050;17.416;2023-08-01T11:02:23;9.37;;;8.97;;
12665;SDS011;58531;59.050;17.416;2023-08-01T11:04:54;9.73;;;9.33;;
12665;SDS011;58531;59.050;17.416;2023-08-01T11:07:22;11.97;;;11.47;;
12665;SDS011;58531;59.050;17.416;2023-08-01T11:09:49;13.37;;;12.87;;
12665;SDS011;58531;59.050;17.416;2023-08-01T11:12:27;12.37;;;11.77;;
12665;SDS011;58531;59.050;17.416;2023-08-01T11:14:58;11.67;;;11.17;;
12665;SDS011;58531;59.050;17.416;2023-08-01T11:17:27;10.97;;;10.47;;
12665;SDS011;58531;59.050;17.416;2023-08-01T11:20:00;12.53;;;12.03;;
12665;SDS011;58531;59.050;17.416;2023-08-01T11:22:27;10.60;;;10.03;;
12665;SDS011;58531;59.050;17.416;2023-08-01T11:24:54;10.13;;;9.70;;
12665;SDS011;58531;59.050;17.416;2023-08-01T11:27:21;13.13;;;12.63;;
12665;SDS011;58531;59.050;17.416;2023-08-01T11:29:48;12.67;;;12.17;;
12665;SDS011;58531;59.050;17.416;2023-08-01T11:32:15;12.80;;;12.17;;
12665;SDS011;58531;59.050;17.416;2023-08-01T11:34:43;8.67;;;8.27;;
12665;SDS011;58531;59.050;17.416;2023-08-01T11:37:11;12.93;;;12.43;;
12665;SDS011;58531;59.050;17.416;2023-08-01T11:39:38;10.57;;;10.13;;
12665;SDS011;58531;59.050;17.416;2023-08-01T11:42:06;11.07;;;10.47;;
12665;SDS011;58531;59.050;17.416;2023-08-01T11:44:32;10.30;;;9.90;;
12665;SDS011;58531;59.050;17.416;2023-08-01T11:46:59;12.20;;;11.60;;
12665;SDS011;58531;59.050;17.416;2023-08-01T11:49:28;9.63;;;9.20;;
12665;SDS011;58531;59.050;17.416;2023-08-01T11:51:57;10.73;;;10.27;;
12665;SDS011;58531;59.050;17.416;2023-08-01T11:54:24;11.23;;;10.73;;
12665;SDS011;58531;59.050;17.416;2023-08-01T11:56:50;12.37;;;11.67;;
12665;SDS011;58531;59.050;17.416;2023-08-01T11:59:26;10.43;;;10.03;;
12665;SDS011;58531;59.050;17.416;2023-08-01T12:01:53;8.73;;;8.33;;
12665;SDS011;58531;59.050;17.416;2023-08-01T12:04:24;10.57;;;10.13;;
12665;SDS011;58531;59.050;17.416;2023-08-01T12:06:51;9.60;;;9.20;;
12665;SDS011;58531;59.050;17.416;2023-08-01T12:09:19;11.87;;;11.33;;
12665;SDS011;58531;59.050;17.416;2023-08-01T12:11:46;9.63;;;9.13;;
12665;SDS011;58531;59.050;17.416;2023-08-01T12:14:24;14.93;;;14.33;;
12665;SDS011;58531;59.050;17.416;2023-08-01T12:16:53;10.70;;;10.17;;
12665;SDS011;58531;59.050;17.416;2023-08-01T12:19:20;11.40;;;10.90;;
12665;SDS011;58531;59.050;17.416;2023-08-01T12:21:48;12.13;;;11.43;;
12665;SDS011;58531;59.050;17.416;2023-08-01T12:24:15;11.03;;;10.53;;
12665;SDS011;58531;59.050;17.416;2023-08-01T12:26:43;10.53;;;10.07;;
12665;SDS011;58531;59.050;17.416;2023-08-01T12:29:10;9.33;;;8.93;;
12665;SDS011;58531;59.050;17.416;2023-08-01T12:31:37;15.10;;;14.40;;
12665;SDS011;58531;59.050;17.416;2023-08-01T12:34:04;10.07;;;9.67;;
12665;SDS011;58531;59.050;17.416;2023-08-01T12:36:30;10.37;;;9.77;;
12665;SDS011;58531;59.050;17.416;2023-08-01T12:38:57;10.20;;;9.80;;
12665;SDS011;58531;59.050;17.416;2023-08-01T12:41:24;14.93;;;14.23;;
12665;SDS011;58531;59.050;17.416;2023-08-01T12:43:52;12.37;;;11.87;;
12665;SDS011;58531;59.050;17.416;2023-08-01T12:46:19;12.10;;;11.53;;
12665;SDS011;58531;59.050;17.416;2023-08-01T12:48:46;11.40;;;10.80;;
12665;SDS011;58531;59.050;17.416;2023-08-01T12:51:13;10.93;;;10.33;;
12665;SDS011;58531;59.050;17.416;2023-08-01T12:53:40;11.23;;;10.70;;
12665;SDS011;58531;59.050;17.416;2023-08-01T12:56:07;9.00;;;8.57;;
12665;SDS011;58531;59.050;17.416;2023-08-01T12:58:34;11.27;;;10.77;;
12665;SDS011;58531;59.050;17.416;2023-08-01T13:01:03;10.40;;;10.00;;
12665;SDS011;58531;59.050;17.416;2023-08-01T13:03:30;11.03;;;10.53;;
12665;SDS011;58531;59.050;17.416;2023-08-01T13:05:57;11.50;;;10.97;;
12665;SDS011;58531;59.050;17.416;2023-08-01T13:08:24;12.47;;;11.97;;
12665;SDS011;58531;59.050;17.416;2023-08-01T13:10:51;13.77;;;13.00;;
12665;SDS011;58531;59.050;17.416;2023-08-01T13:13:18;11.10;;;10.60;;
12665;SDS011;58531;59.050;17.416;2023-08-01T13:15:45;11.17;;;10.57;;
12665;SDS011;58531;59.050;17.416;2023-08-01T13:18:13;11.80;;;11.30;;
12665;SDS011;58531;59.050;17.416;2023-08-01T13:20:40;11.47;;;10.97;;
12665;SDS011;58531;59.050;17.416;2023-08-01T13:23:07;12.17;;;11.67;;
12665;SDS011;58531;59.050;17.416;2023-08-01T13:25:34;13.67;;;13.07;;
12665;SDS011;58531;59.050;17.416;2023-08-01T13:28:01;13.90;;;13.30;;
12665;SDS011;58531;59.050;17.416;2023-08-01T13:30:28;12.43;;;11.93;;
12665;SDS011;58531;59.050;17.416;2023-08-01T13:32:55;12.47;;;11.87;;
12665;SDS011;58531;59.050;17.416;2023-08-01T13:35:23;11.10;;;10.70;;
12665;SDS011;58531;59.050;17.416;2023-08-01T13:37:50;12.33;;;11.73;;
12665;SDS011;58531;59.050;17.416;2023-08-01T13:40:17;13.53;;;13.00;;
12665;SDS011;58531;59.050;17.416;2023-08-01T13:42:44;13.70;;;13.03;;
12665;SDS011;58531;59.050;17.416;2023-08-01T13:45:11;13.17;;;12.57;;
12665;SDS011;58531;59.050;17.416;2023-08-01T13:47:37;14.50;;;13.83;;
12665;SDS011;58531;59.050;17.416;2023-08-01T13:50:05;12.13;;;11.53;;
12665;SDS011;58531;59.050;17.416;2023-08-01T13:52:33;12.03;;;11.53;;
12665;SDS011;58531;59.050;17.416;2023-08-01T13:55:00;12.67;;;12.07;;
12665;SDS011;58531;59.050;17.416;2023-08-01T13:57:28;13.40;;;12.90;;
12665;SDS011;58531;59.050;17.416;2023-08-01T13:59:55;13.50;;;12.80;;
12665;SDS011;58531;59.050;17.416;2023-08-01T14:02:21;11.83;;;11.33;;
12665;SDS011;58531;59.050;17.416;2023-08-01T14:04:50;10.27;;;9.77;;
12665;SDS011;58531;59.050;17.416;2023-08-01T14:07:17;11.33;;;10.83;;
12665;SDS011;58531;59.050;17.416;2023-08-01T14:09:45;11.73;;;11.23;;
12665;SDS011;58531;59.050;17.416;2023-08-01T14:12:12;12.73;;;12.23;;
12665;SDS011;58531;59.050;17.416;2023-08-01T14:14:41;13.33;;;12.83;;